Time;durP1;ratioP1;P1;durP2;ratioP2;P2;SDS_P1;SDS_P2;PMS_P1;PMS_P2;Temp;Humidity;BMP_temperature;BMP_pressure;BME280_temperature;BME280_humidity;BME280_pressure;Samples;Min_cycle;Max_cycle;Signal;HPM_P1;HPM_P2
2021/09/30 00:00:11;;;;;;;63.63;36.67;;;;;;;15.07;80.38;100410.81;5031680;28;20247;-70
2021/09/30 00:02:36;;;;;;;52.83;33.30;;;;;;;15.12;80.22;100406.97;5029640;28;20044;-70
2021/09/30 00:05:04;;;;;;;53.92;34.58;;;;;;;15.13;79.89;100402.97;5027855;28;20045;-70
2021/09/30 00:07:29;;;;;;;62.42;36.60;;;;;;;15.09;79.59;100397.19;5027985;28;20392;-70
2021/09/30 00:09:56;;;;;;;54.28;36.17;;;;;;;15.10;79.72;100406.47;5028925;28;20031;-70
2021/09/30 00:12:25;;;;;;;53.80;34.33;;;;;;;15.12;79.50;100406.97;5029041;28;20061;-70
2021/09/30 00:15:03;;;;;;;56.15;35.40;;;;;;;15.07;80.19;100407.16;5028694;28;20025;-70
2021/09/30 00:34:01;;;;;;;48.45;31.48;;;;;;;15.07;80.37;100404.34;5033999;28;20036;-70
2021/09/30 00:55:30;;;;;;;50.60;32.67;;;;;;;14.93;81.31;100394.16;5030272;28;20468;-70
2021/09/30 02:58:12;;;;;;;24.67;17.48;;;;;;;14.78;81.91;100406.88;5018608;28;20048;-70
2021/09/30 02:59:27;;;;;;;18.38;14.43;;;;;;;14.89;80.65;100410.09;5037856;28;20056;-70
2021/09/30 03:01:56;;;;;;;20.58;14.80;;;;;;;14.75;81.47;100404.72;5035433;28;20057;-70
2021/09/30 03:04:23;;;;;;;27.75;15.23;;;;;;;14.80;80.85;100406.50;5037816;28;20025;-70
2021/09/30 03:06:50;;;;;;;20.50;15.13;;;;;;;14.82;80.94;100402.19;5031946;28;20026;-70
2021/09/30 03:09:19;;;;;;;22.15;15.75;;;;;;;14.82;81.03;100398.53;5018034;28;20384;-70
2021/09/30 03:11:50;;;;;;;19.08;14.13;;;;;;;14.87;80.93;100396.34;5017712;28;20116;-70
2021/09/30 03:14:18;;;;;;;18.13;13.95;;;;;;;14.88;80.02;100398.00;5018106;28;20038;-70
2021/09/30 03:16:47;;;;;;;16.35;14.20;;;;;;;14.89;80.43;100398.84;5017662;28;20034;-70
2021/09/30 03:22:13;;;;;;;17.63;14.10;;;;;;;14.81;80.71;100405.34;5037926;28;20420;-70
2021/09/30 03:24:44;;;;;;;19.52;14.80;;;;;;;14.82;80.09;100404.16;5037828;28;20528;-70
2021/09/30 03:27:09;;;;;;;22.77;14.60;;;;;;;14.77;79.84;100408.00;5037690;28;20021;-70
2021/09/30 03:29:35;;;;;;;18.17;13.80;;;;;;;14.74;80.40;100403.06;5037405;28;20021;-70
2021/09/30 03:32:02;;;;;;;21.08;14.95;;;;;;;14.64;80.39;100404.25;5032147;28;20048;-70
2021/09/30 03:34:28;;;;;;;21.85;15.32;;;;;;;14.64;80.39;100403.41;5026950;28;20037;-70
2021/09/30 03:36:54;;;;;;;31.52;14.85;;;;;;;14.58;80.38;100406.44;5036003;28;20036;-70
2021/09/30 03:39:25;;;;;;;17.63;13.90;;;;;;;14.61;80.31;100407.75;5036300;28;20037;-70
2021/09/30 03:41:52;;;;;;;27.17;13.35;;;;;;;14.67;80.48;100406.38;5036249;28;20036;-70
2021/09/30 03:44:18;;;;;;;21.58;13.60;;;;;;;14.70;80.33;100413.34;5036165;28;20091;-70
2021/09/30 03:46:46;;;;;;;26.33;11.63;;;;;;;14.67;80.95;100408.41;5032222;28;20029;-70
2021/09/30 03:49:20;;;;;;;24.38;13.45;;;;;;;14.67;79.96;100414.03;5024625;28;20026;-70
2021/09/30 03:51:54;;;;;;;18.08;11.93;;;;;;;14.76;79.99;100416.81;5034558;28;20026;-70
2021/09/30 03:54:36;;;;;;;16.25;11.93;;;;;;;14.76;79.49;100419.63;5016818;28;20029;-70
2021/09/30 03:59:27;;;;;;;18.33;11.68;;;;;;;14.67;80.43;100417.66;5020343;28;20100;-70
2021/09/30 04:01:57;;;;;;;16.05;12.20;;;;;;;14.63;80.59;100413.88;5032434;28;20033;-70
2021/09/30 04:04:29;;;;;;;19.77;12.40;;;;;;;14.65;80.36;100405.91;5024680;28;20022;-70
2021/09/30 04:06:56;;;;;;;18.73;12.73;;;;;;;14.68;79.84;100422.13;5013002;28;20518;-70
2021/09/30 04:09:26;;;;;;;14.70;11.30;;;;;;;14.74;79.09;100408.69;5013619;28;20112;-70
2021/09/30 04:12:06;;;;;;;15.45;10.77;;;;;;;14.75;78.57;100418.78;5014178;28;20065;-70
2021/09/30 04:14:32;;;;;;;15.10;11.00;;;;;;;14.73;78.39;100413.53;5014373;28;20022;-70
2021/09/30 04:16:58;;;;;;;13.95;10.48;;;;;;;14.76;78.00;100411.19;5018749;28;20380;-70
2021/09/30 04:19:23;;;;;;;16.83;11.32;;;;;;;14.72;77.34;100411.88;5033958;28;20048;-70
2021/09/30 04:21:51;;;;;;;16.90;10.35;;;;;;;14.77;77.16;100412.81;5032383;28;20049;-70
2021/09/30 04:24:18;;;;;;;17.05;10.55;;;;;;;14.73;76.73;100419.16;5033682;28;20029;-70
2021/09/30 04:26:44;;;;;;;18.80;9.55;;;;;;;14.67;76.65;100417.66;5033794;28;20079;-70
2021/09/30 04:29:10;;;;;;;16.73;10.80;;;;;;;14.70;76.61;100428.22;5032290;28;20044;-70
2021/09/30 04:31:35;;;;;;;18.00;10.40;;;;;;;14.73;76.55;100423.94;5014863;28;20022;-70
2021/09/30 04:34:02;;;;;;;17.08;10.20;;;;;;;14.68;76.45;100430.56;5012554;28;20057;-70
2021/09/30 04:36:28;;;;;;;21.77;10.80;;;;;;;14.63;76.92;100425.13;5025443;28;20108;-70
2021/09/30 04:38:54;;;;;;;19.00;10.73;;;;;;;14.71;76.73;100432.69;5013877;28;20093;-70
2021/09/30 04:41:20;;;;;;;15.40;10.05;;;;;;;14.65;76.75;100439.69;5024902;28;20411;-70
2021/09/30 04:43:47;;;;;;;17.88;11.50;;;;;;;14.65;76.30;100442.50;5031497;28;20025;-70
2021/09/30 04:46:13;;;;;;;20.02;9.80;;;;;;;14.58;76.22;100443.03;5032126;28;20104;-70
2021/09/30 04:48:39;;;;;;;15.93;10.38;;;;;;;14.67;76.45;100442.19;5033259;28;20018;-70
2021/09/30 04:51:05;;;;;;;19.70;11.13;;;;;;;14.72;76.32;100442.00;5033592;28;20025;-70
2021/09/30 04:53:31;;;;;;;20.38;10.30;;;;;;;14.72;76.52;100445.66;5022333;28;20033;-70
2021/09/30 04:55:56;;;;;;;18.17;11.45;;;;;;;14.80;76.44;100446.78;5013468;28;20084;-70
2021/09/30 04:58:22;;;;;;;17.10;11.35;;;;;;;14.78;76.51;100446.28;5013237;28;20026;-70
2021/09/30 05:00:47;;;;;;;16.38;11.77;;;;;;;14.73;76.87;100447.31;5016700;28;20021;-70
2021/09/30 05:03:13;;;;;;;15.38;11.15;;;;;;;14.76;77.04;100444.97;5012250;28;20021;-70
2021/09/30 05:05:38;;;;;;;15.52;11.68;;;;;;;14.79;76.87;100442.31;5013400;28;20104;-70
2021/09/30 05:08:04;;;;;;;17.35;11.15;;;;;;;14.81;76.79;100450.41;5011885;28;20117;-70
2021/09/30 05:10:33;;;;;;;19.42;12.20;;;;;;;14.77;76.84;100444.63;5030121;28;20137;-70
2021/09/30 05:13:10;;;;;;;13.48;11.50;;;;;;;14.80;77.21;100449.59;5031350;28;20075;-70
2021/09/30 05:15:36;;;;;;;18.92;11.32;;;;;;;14.73;77.34;100455.75;5033052;28;20037;-70
2021/09/30 05:18:03;;;;;;;16.35;11.52;;;;;;;14.75;77.11;100449.75;5031136;28;20029;-70
2021/09/30 05:20:28;;;;;;;17.60;12.27;;;;;;;14.80;77.17;100451.56;5031294;28;20033;-70
2021/09/30 05:22:54;;;;;;;26.45;12.75;;;;;;;14.82;77.27;100454.88;5032829;28;20112;-71
2021/09/30 05:25:20;;;;;;;17.83;12.48;;;;;;;14.85;76.97;100452.19;5031193;28;20554;-70
2021/09/30 05:27:45;;;;;;;22.85;13.18;;;;;;;14.85;76.89;100457.03;5026790;28;20100;-70
2021/09/30 05:30:11;;;;;;;18.73;14.65;;;;;;;14.94;76.66;100456.97;5030871;28;20492;-70
2021/09/30 05:32:37;;;;;;;21.08;14.63;;;;;;;14.91;75.78;100457.66;5026438;28;20025;-71
2021/09/30 05:35:06;;;;;;;19.70;14.93;;;;;;;14.92;76.13;100464.94;5022374;28;20022;-70
2021/09/30 05:37:31;;;;;;;20.10;14.63;;;;;;;14.95;75.94;100469.88;5018401;28;20037;-71
2021/09/30 05:39:57;;;;;;;18.38;13.90;;;;;;;14.94;75.92;100469.03;5023479;28;20025;-70
2021/09/30 05:42:24;;;;;;;23.75;15.48;;;;;;;14.97;75.92;100467.53;5023720;28;20041;-70
2021/09/30 05:44:51;;;;;;;18.92;14.18;;;;;;;14.96;75.81;100472.38;5017602;28;20025;-70
2021/09/30 05:47:20;;;;;;;19.23;14.90;;;;;;;14.95;74.84;100475.50;5029211;28;20535;-71
2021/09/30 05:49:46;;;;;;;21.25;14.98;;;;;;;14.99;75.17;100479.28;5025858;28;20092;-70
2021/09/30 05:52:14;;;;;;;22.65;14.35;;;;;;;15.06;75.08;100481.56;5022354;28;20063;-70
2021/09/30 05:54:40;;;;;;;19.77;14.40;;;;;;;14.99;75.52;100477.31;5022385;28;20091;-70
2021/09/30 05:57:05;;;;;;;25.05;14.48;;;;;;;15.07;74.71;100477.59;5024287;28;20029;-70
2021/09/30 05:59:34;;;;;;;17.98;12.52;;;;;;;15.09;74.12;100472.47;5024567;28;20033;-71
2021/09/30 06:12:59;;;;;;;18.08;11.50;;;;;;;15.21;73.03;100477.34;5019774;28;20054;-71
2021/09/30 06:15:12;;;;;;;20.48;12.32;;;;;;;15.19;72.96;100488.94;5012906;28;20047;-71
2021/09/30 06:17:39;;;;;;;20.67;12.00;;;;;;;15.27;72.42;100484.44;5030227;28;20026;-71
2021/09/30 06:20:05;;;;;;;26.70;11.73;;;;;;;15.21;72.30;100486.63;5029996;28;20075;-71
2021/09/30 06:22:31;;;;;;;13.23;10.35;;;;;;;15.21;71.59;100489.44;5028621;28;20045;-71
2021/09/30 06:24:56;;;;;;;20.55;11.85;;;;;;;15.22;71.21;100491.09;5026983;28;20029;-71
2021/09/30 06:27:22;;;;;;;19.60;11.27;;;;;;;15.21;71.10;100489.44;5026611;28;20104;-71
2021/09/30 06:29:47;;;;;;;23.23;11.18;;;;;;;15.29;71.03;100487.72;5025070;28;20036;-71
2021/09/30 06:32:13;;;;;;;23.27;10.98;;;;;;;15.46;69.89;100489.59;5028724;28;20130;-71
2021/09/30 06:34:41;;;;;;;18.40;11.68;;;;;;;15.58;68.29;100489.66;5018345;28;20032;-71
2021/09/30 06:37:06;;;;;;;16.10;9.48;;;;;;;15.54;68.07;100497.13;5031239;28;20060;-71
2021/09/30 06:39:32;;;;;;;22.65;10.88;;;;;;;15.49;67.62;100497.34;5027979;28;20063;-71
2021/09/30 06:41:57;;;;;;;14.82;10.10;;;;;;;15.64;68.02;100492.25;5029723;28;20049;-71
2021/09/30 06:44:23;;;;;;;12.60;8.10;;;;;;;15.71;65.97;100493.34;5021758;28;20084;-72
2021/09/30 06:46:48;;;;;;;12.40;7.80;;;;;;;15.80;66.07;100498.91;5025150;28;20048;-71
2021/09/30 06:49:14;;;;;;;19.27;7.55;;;;;;;16.04;65.24;100500.22;5024070;28;20079;-71
2021/09/30 06:51:39;;;;;;;10.50;7.00;;;;;;;16.16;63.96;100492.97;5023280;28;20025;-70
2021/09/30 06:54:05;;;;;;;13.98;7.10;;;;;;;16.25;63.53;100496.53;5030756;28;20104;-70
2021/09/30 06:56:31;;;;;;;12.38;6.80;;;;;;;16.31;63.55;100497.97;5026008;28;20022;-70
2021/09/30 06:59:03;;;;;;;8.73;5.82;;;;;;;16.55;63.11;100496.34;5015409;28;20026;-70
2021/09/30 07:01:30;;;;;;;12.15;6.65;;;;;;;16.74;61.39;100503.41;5022132;28;20476;-70
2021/09/30 07:03:55;;;;;;;8.05;6.50;;;;;;;16.66;62.07;100500.38;5016397;28;20116;-70
2021/09/30 07:06:20;;;;;;;12.70;6.70;;;;;;;16.70;61.21;100498.47;5021286;28;20108;-70
2021/09/30 07:08:46;;;;;;;10.82;7.72;;;;;;;16.70;61.85;100498.47;5027132;28;20033;-70
2021/09/30 07:11:11;;;;;;;13.77;7.15;;;;;;;16.70;60.91;100506.97;5025353;28;20751;-70
2021/09/30 07:13:37;;;;;;;13.43;7.15;;;;;;;16.69;61.14;100504.47;5025616;28;20033;-70
2021/09/30 07:16:06;;;;;;;17.27;8.38;;;;;;;16.58;61.77;100498.47;5023673;28;20033;-70
2021/09/30 07:18:31;;;;;;;12.70;6.50;;;;;;;16.64;61.19;100504.72;5024638;28;20036;-70
2021/09/30 07:21:03;;;;;;;13.73;6.70;;;;;;;16.72;61.53;100502.94;5024959;28;20021;-70
2021/09/30 07:23:29;;;;;;;12.50;6.70;;;;;;;16.77;60.67;100499.88;5024653;28;20029;-70
2021/09/30 07:25:55;;;;;;;16.50;7.10;;;;;;;16.96;60.32;100496.50;5024787;28;20030;-70
2021/09/30 07:28:22;;;;;;;12.60;6.05;;;;;;;16.94;59.45;100499.66;5025527;28;20400;-70
2021/09/30 07:30:48;;;;;;;14.85;6.15;;;;;;;16.79;60.76;100495.53;5026435;28;20029;-70
2021/09/30 07:33:15;;;;;;;8.77;5.80;;;;;;;16.85;60.36;100504.59;5023224;28;20018;-70
2021/09/30 07:35:41;;;;;;;8.52;6.13;;;;;;;16.78;60.16;100496.72;5025914;28;20048;-70
2021/09/30 07:38:07;;;;;;;13.13;6.78;;;;;;;16.68;60.23;100500.00;5026816;28;20030;-70
2021/09/30 07:40:33;;;;;;;15.30;5.93;;;;;;;16.74;59.65;100497.78;5018200;28;20049;-70
2021/09/30 07:42:59;;;;;;;11.93;6.53;;;;;;;16.91;59.68;100500.38;5020911;28;20100;-70
2021/09/30 07:45:25;;;;;;;14.25;6.03;;;;;;;16.93;58.57;100494.34;5023943;28;20032;-70
2021/09/30 07:47:50;;;;;;;12.10;6.28;;;;;;;17.02;59.12;100489.44;5026562;28;20026;-70
2021/09/30 07:50:16;;;;;;;10.60;5.90;;;;;;;17.07;58.87;100492.03;5022267;28;20022;-70
2021/09/30 07:52:41;;;;;;;12.00;6.53;;;;;;;17.09;58.30;100494.50;5034037;28;20493;-70
2021/09/30 07:55:07;;;;;;;15.55;6.70;;;;;;;17.21;58.82;100490.84;5028319;28;20083;-70
2021/09/30 07:57:33;;;;;;;8.25;6.07;;;;;;;17.45;58.22;100495.63;5033168;28;20115;-70
2021/09/30 07:59:59;;;;;;;12.05;6.93;;;;;;;17.51;58.75;100499.03;5030888;28;20480;-71
2021/09/30 08:02:24;;;;;;;11.65;7.30;;;;;;;17.59;58.56;100495.25;5027710;28;20044;-71
2021/09/30 08:04:50;;;;;;;12.80;6.18;;;;;;;17.60;57.52;100491.22;5028507;28;20448;-70
2021/09/30 08:07:15;;;;;;;13.35;6.20;;;;;;;17.57;57.72;100479.81;5028568;28;20029;-70
2021/09/30 08:09:41;;;;;;;11.93;5.80;;;;;;;17.58;57.01;100487.09;5028824;28;20037;-70
2021/09/30 08:12:07;;;;;;;14.77;5.90;;;;;;;17.59;58.29;100488.75;5026588;28;20496;-70
2021/09/30 08:14:34;;;;;;;12.55;7.10;;;;;;;17.68;57.63;100493.09;5029202;28;20029;-70
2021/09/30 08:16:59;;;;;;;12.23;7.10;;;;;;;17.70;57.47;100489.88;5032238;28;20482;-70
2021/09/30 08:19:25;;;;;;;24.33;7.32;;;;;;;17.79;57.94;100482.09;5033571;28;20057;-70
2021/09/30 08:21:50;;;;;;;9.98;5.90;;;;;;;17.85;56.08;100478.97;5033577;28;20108;-71
2021/09/30 08:24:18;;;;;;;17.48;7.78;;;;;;;18.12;55.96;100477.34;5033762;28;20468;-70
2021/09/30 08:26:45;;;;;;;11.70;6.78;;;;;;;18.23;55.69;100480.50;5032836;28;20044;-70
2021/09/30 08:29:12;;;;;;;10.88;6.03;;;;;;;18.07;57.38;100469.94;5031353;28;20032;-70
2021/09/30 08:31:38;;;;;;;17.80;7.07;;;;;;;18.25;54.97;100475.28;5033893;28;20022;-71
2021/09/30 08:34:03;;;;;;;14.18;6.00;;;;;;;18.28;55.71;100480.22;5033591;28;20026;-71
2021/09/30 08:36:29;;;;;;;8.90;6.22;;;;;;;18.39;55.55;100477.66;5033267;28;20047;-71
2021/09/30 08:38:55;;;;;;;15.40;6.53;;;;;;;18.38;55.76;100479.69;5031557;28;20017;-71
2021/09/30 08:41:21;;;;;;;7.55;5.45;;;;;;;18.50;54.23;100480.78;5031558;28;20161;-71
2021/09/30 08:43:46;;;;;;;10.43;5.80;;;;;;;18.49;53.19;100476.31;5018912;28;20036;-71
2021/09/30 08:46:13;;;;;;;13.15;6.40;;;;;;;18.27;54.58;100475.75;5029322;28;20048;-71
2021/09/30 08:48:40;;;;;;;16.48;6.82;;;;;;;18.44;54.42;100480.25;5028180;28;20473;-71
2021/09/30 08:51:08;;;;;;;8.35;6.32;;;;;;;18.62;54.20;100468.53;5030292;28;21768;-71
2021/09/30 08:53:36;;;;;;;7.47;5.35;;;;;;;18.59;53.10;100470.09;5025018;28;20032;-71
2021/09/30 08:56:04;;;;;;;12.55;5.32;;;;;;;18.53;53.54;100468.72;5028566;28;20499;-73
2021/09/30 08:58:29;;;;;;;9.25;6.40;;;;;;;18.80;53.55;100474.66;5026550;28;20025;-71
2021/09/30 09:00:58;;;;;;;14.73;5.70;;;;;;;18.85;53.06;100463.03;5027819;28;20503;-75
2021/09/30 09:03:40;;;;;;;13.70;6.13;;;;;;;18.82;51.57;100460.13;5027559;28;20025;-71
2021/09/30 09:06:06;;;;;;;23.02;6.13;;;;;;;18.67;51.87;100462.59;5027662;28;20040;-72
2021/09/30 09:08:32;;;;;;;8.27;5.05;;;;;;;18.86;51.36;100464.69;5027131;28;20498;-72
2021/09/30 09:11:00;;;;;;;10.68;5.10;;;;;;;18.78;49.82;100463.69;5027449;28;20543;-72
2021/09/30 09:13:26;;;;;;;9.55;4.90;;;;;;;18.69;50.34;100453.72;5028177;28;20399;-72
2021/09/30 09:15:57;;;;;;;14.93;5.82;;;;;;;19.00;51.32;100454.91;5028652;28;20030;-73
2021/09/30 09:18:29;;;;;;;6.95;5.15;;;;;;;19.21;50.90;100457.41;5028007;28;20105;-73
2021/09/30 09:21:23;;;;;;;17.70;6.15;;;;;;;19.28;48.38;100453.91;5024792;28;20564;-73
2021/09/30 09:23:54;;;;;;;18.77;5.82;;;;;;;19.22;48.35;100462.72;5030061;28;20079;-73
2021/09/30 09:26:34;;;;;;;12.65;5.75;;;;;;;19.11;49.01;100461.66;5032482;28;20033;-72
2021/09/30 09:29:01;;;;;;;12.10;7.28;;;;;;;19.15;48.81;100456.88;5031042;28;20105;-72
2021/09/30 09:31:35;;;;;;;17.25;6.80;;;;;;;18.94;50.10;100460.00;5032583;28;20021;-72
2021/09/30 09:34:28;;;;;;;9.98;7.00;;;;;;;19.02;50.70;100450.53;5031369;28;20025;-72
2021/09/30 09:37:14;;;;;;;20.80;7.40;;;;;;;19.02;51.18;100449.69;5032438;28;20021;-72
2021/09/30 09:39:40;;;;;;;9.63;6.82;;;;;;;18.93;49.11;100455.53;5031880;28;20455;-72
2021/09/30 09:42:17;;;;;;;12.82;7.05;;;;;;;19.08;50.91;100448.22;5032155;28;20033;-74
2021/09/30 09:45:06;;;;;;;8.80;5.93;;;;;;;19.25;50.48;100449.00;5025953;28;20039;-71
2021/09/30 09:47:37;;;;;;;9.45;6.00;;;;;;;19.14;50.14;100449.56;5029007;28;20029;-72
2021/09/30 09:50:23;;;;;;;17.52;6.80;;;;;;;19.25;50.34;100452.66;5015502;28;20022;-72
2021/09/30 09:52:58;;;;;;;13.43;5.90;;;;;;;19.08;48.30;100443.34;5027528;28;20116;-72
2021/09/30 09:55:35;;;;;;;14.15;6.13;;;;;;;18.90;48.69;100447.78;5027188;28;20037;-72
2021/09/30 09:58:12;;;;;;;12.52;6.43;;;;;;;18.84;50.31;100449.22;5026860;28;20120;-71
2021/09/30 10:00:41;;;;;;;15.98;6.38;;;;;;;18.81;49.30;100447.94;5027988;28;20041;-72
2021/09/30 10:03:41;;;;;;;17.90;6.75;;;;;;;18.87;48.68;100454.16;5022737;28;20124;-72
2021/09/30 10:06:06;;;;;;;46.47;24.98;;;;;;;19.05;48.27;100449.78;5025479;28;20051;-72
2021/09/30 10:08:33;;;;;;;20.50;12.10;;;;;;;19.10;48.53;100442.16;5018880;28;20014;-72
2021/09/30 10:10:59;;;;;;;21.23;12.32;;;;;;;19.08;47.96;100439.72;5023876;28;20053;-72
2021/09/30 10:13:26;;;;;;;18.88;11.60;;;;;;;18.98;47.45;100431.75;5030462;28;20040;-72
2021/09/30 10:15:54;;;;;;;18.40;9.48;;;;;;;19.13;48.38;100439.41;5025783;28;20455;-72
2021/09/30 10:18:22;;;;;;;22.67;10.15;;;;;;;18.98;48.56;100443.09;5024567;28;20424;-72
2021/09/30 10:20:49;;;;;;;24.92;10.95;;;;;;;19.02;46.95;100436.34;5028648;28;20492;-72
2021/09/30 10:23:21;;;;;;;14.48;6.53;;;;;;;19.00;47.21;100432.22;5031277;28;20108;-72
2021/09/30 10:25:47;;;;;;;15.02;8.57;;;;;;;19.10;48.48;100443.00;5029909;28;20072;-72
2021/09/30 10:28:13;;;;;;;11.40;7.00;;;;;;;19.07;48.12;100438.06;5030276;28;20033;-74
2021/09/30 10:30:50;;;;;;;19.65;8.35;;;;;;;19.03;48.15;100440.00;5026095;28;20033;-72
2021/09/30 10:33:20;;;;;;;14.73;7.40;;;;;;;19.26;47.87;100430.78;5022500;28;20032;-72
2021/09/30 10:35:50;;;;;;;14.98;8.48;;;;;;;19.18;47.93;100433.44;5026095;28;20021;-72
2021/09/30 10:38:22;;;;;;;22.60;8.55;;;;;;;19.08;47.36;100429.19;5024538;28;20135;-72
2021/09/30 10:41:14;;;;;;;13.77;6.07;;;;;;;19.16;47.24;100423.69;5026736;28;20040;-72
2021/09/30 10:43:46;;;;;;;9.80;5.18;;;;;;;19.06;45.94;100427.91;5020058;28;20527;-73
2021/09/30 10:46:26;;;;;;;9.50;5.45;;;;;;;19.08;46.47;100425.53;5030537;28;20098;-71
2021/09/30 10:48:56;;;;;;;14.63;9.13;;;;;;;19.28;46.55;100429.22;5024536;28;20047;-71
2021/09/30 10:51:22;;;;;;;15.82;8.63;;;;;;;19.26;46.67;100428.78;5020295;28;20095;-71
2021/09/30 10:53:48;;;;;;;11.55;8.07;;;;;;;19.49;47.05;100428.06;5027540;28;20053;-71
2021/09/30 10:56:41;;;;;;;20.65;9.98;;;;;;;19.49;45.82;100428.84;5028588;28;20092;-72
2021/09/30 10:59:09;;;;;;;17.40;9.30;;;;;;;19.45;47.57;100427.97;5026304;28;20493;-71
2021/09/30 11:01:47;;;;;;;17.88;11.73;;;;;;;19.42;46.76;100427.88;5031078;28;20037;-72
2021/09/30 11:04:13;;;;;;;16.20;6.80;;;;;;;19.42;46.99;100423.03;5029168;28;20061;-72
2021/09/30 11:06:39;;;;;;;14.48;6.30;;;;;;;19.34;47.50;100422.06;5029190;28;20511;-72
2021/09/30 11:09:15;;;;;;;9.77;5.93;;;;;;;19.47;46.58;100424.75;5025162;28;20031;-72
2021/09/30 11:11:52;;;;;;;17.08;6.57;;;;;;;19.40;46.41;100419.75;5028871;28;20667;-70
2021/09/30 11:14:20;;;;;;;26.45;14.52;;;;;;;19.42;46.34;100416.53;5029220;28;20041;-70
2021/09/30 11:16:53;;;;;;;24.33;12.00;;;;;;;19.24;46.02;100419.00;5029335;28;20029;-70
2021/09/30 11:19:34;;;;;;;18.40;9.23;;;;;;;19.27;47.04;100419.06;5028061;28;20083;-70
2021/09/30 11:22:05;;;;;;;15.10;7.57;;;;;;;19.40;47.58;100405.56;5029575;28;20400;-70
2021/09/30 11:24:54;;;;;;;21.42;11.63;;;;;;;19.34;47.82;100407.06;5034339;28;20025;-70
2021/09/30 11:27:20;;;;;;;33.60;17.80;;;;;;;19.43;47.74;100410.50;5024347;28;20477;-70
2021/09/30 11:29:47;;;;;;;36.20;18.13;;;;;;;19.38;47.04;100409.97;5033110;28;20021;-70
2021/09/30 11:32:12;;;;;;;21.00;12.82;;;;;;;19.29;47.57;100404.50;5032546;28;20025;-70
2021/09/30 11:34:49;;;;;;;16.92;7.32;;;;;;;19.33;46.58;100400.56;5032503;28;20104;-70
2021/09/30 11:37:27;;;;;;;14.98;7.00;;;;;;;19.37;47.71;100403.47;5025187;28;20112;-70
2021/09/30 11:39:56;;;;;;;15.27;6.43;;;;;;;19.12;48.35;100405.75;5033175;28;20104;-70
2021/09/30 11:42:25;;;;;;;18.33;9.68;;;;;;;19.19;48.30;100408.75;5028774;28;20033;-70
2021/09/30 11:45:16;;;;;;;16.42;6.95;;;;;;;19.25;48.02;100398.78;5046973;28;20042;-72
2021/09/30 11:47:43;;;;;;;10.80;5.95;;;;;;;19.38;48.94;100409.97;5024961;28;20118;-73
2021/09/30 11:50:19;;;;;;;30.05;6.63;;;;;;;19.32;47.39;100404.59;5033763;28;20031;-72
2021/09/30 11:52:57;;;;;;;13.98;6.05;;;;;;;19.20;47.33;100399.91;5026101;28;20555;-72
2021/09/30 11:55:27;;;;;;;11.10;6.43;;;;;;;19.26;48.60;100400.41;5028255;28;20037;-71
2021/09/30 11:57:53;;;;;;;;;;;;;;;19.35;47.94;100401.00;5028308;28;20029;-72
2021/09/30 12:00:20;;;;;;;16.10;6.85;;;;;;;19.41;47.87;100398.69;5025867;28;20086;-72
2021/09/30 12:02:56;;;;;;;12.75;7.00;;;;;;;19.36;47.47;100394.13;5029579;28;20091;-72
2021/09/30 12:05:24;;;;;;;9.18;6.47;;;;;;;19.42;47.09;100396.69;5029212;28;20041;-69
2021/09/30 12:07:51;;;;;;;11.95;7.40;;;;;;;19.42;46.83;100391.81;5027161;28;20108;-72
2021/09/30 12:10:16;;;;;;;12.35;5.78;;;;;;;19.39;46.74;100383.25;5028256;28;20049;-72
2021/09/30 12:12:43;;;;;;;13.38;6.30;;;;;;;19.43;47.44;100372.78;5028456;28;20133;-72
2021/09/30 12:15:10;;;;;;;10.73;6.00;;;;;;;19.67;47.49;100374.50;5027783;28;20099;-72
2021/09/30 12:17:37;;;;;;;14.13;6.30;;;;;;;19.61;46.87;100374.00;5027355;28;20033;-72
2021/09/30 12:20:12;;;;;;;11.20;6.82;;;;;;;19.57;46.61;100372.28;5027520;28;20056;-72
2021/09/30 12:22:45;;;;;;;11.75;6.88;;;;;;;19.56;45.19;100379.16;5026180;28;20029;-72
2021/09/30 12:25:15;;;;;;;12.07;6.70;;;;;;;19.52;45.51;100372.56;5026492;28;20022;-72
2021/09/30 12:27:44;;;;;;;12.48;5.50;;;;;;;19.57;45.96;100377.94;5027135;28;20463;-71
2021/09/30 12:30:15;;;;;;;8.60;6.13;;;;;;;19.62;45.82;100366.28;5028316;28;20017;-71
2021/09/30 12:32:43;;;;;;;22.15;6.80;;;;;;;19.68;46.67;100364.78;5031934;28;20829;-71
2021/09/30 12:35:33;;;;;;;13.73;6.40;;;;;;;19.91;47.02;100369.69;5032010;28;20120;-73
2021/09/30 12:38:02;;;;;;;8.93;6.20;;;;;;;19.78;44.99;100355.63;5032999;28;20056;-73
2021/09/30 12:40:34;;;;;;;16.00;6.05;;;;;;;19.63;45.80;100365.09;5032238;28;20095;-73
2021/09/30 12:42:59;;;;;;;14.00;6.75;;;;;;;19.70;46.03;100359.56;5033356;28;20025;-73
2021/09/30 12:45:25;;;;;;;17.38;6.78;;;;;;;19.69;45.87;100357.91;5033183;28;20151;-71
2021/09/30 12:48:07;;;;;;;11.43;5.72;;;;;;;19.50;44.85;100355.94;5032135;28;20052;-71
2021/09/30 12:50:37;;;;;;;17.42;7.65;;;;;;;19.63;44.29;100351.72;5016728;28;20060;-71
2021/09/30 12:53:03;;;;;;;;;;;;;;;19.43;44.88;100359.44;5032448;28;20078;-73
2021/09/30 12:55:31;;;;;;;14.05;6.88;;;;;;;19.47;45.99;100354.66;5031454;28;20401;-71
2021/09/30 12:57:56;;;;;;;11.77;6.55;;;;;;;19.63;46.65;100351.72;5032866;28;20033;-71
2021/09/30 13:00:24;;;;;;;12.10;6.75;;;;;;;19.68;45.18;100350.59;5030894;28;20033;-71
2021/09/30 13:02:55;;;;;;;13.18;5.65;;;;;;;19.51;45.02;100346.22;5031563;28;20021;-72
2021/09/30 13:05:22;;;;;;;10.65;6.05;;;;;;;19.44;45.09;100346.06;5029906;28;20029;-72
2021/09/30 13:07:48;;;;;;;15.63;6.43;;;;;;;19.63;45.34;100348.91;5032030;28;20029;-72
2021/09/30 13:10:16;;;;;;;13.30;6.13;;;;;;;19.76;45.99;100346.69;5029783;28;20022;-72
2021/09/30 13:13:04;;;;;;;13.20;6.03;;;;;;;19.76;45.77;100346.69;5030457;28;20523;-72
2021/09/30 13:15:36;;;;;;;8.88;5.53;;;;;;;19.71;45.59;100331.97;5029457;28;20397;-73
2021/09/30 13:18:04;;;;;;;11.50;6.13;;;;;;;19.63;45.58;100337.53;5031221;28;20408;-74
2021/09/30 13:20:30;;;;;;;11.40;6.93;;;;;;;19.76;47.04;100343.84;5032384;28;20056;-74
2021/09/30 13:22:56;;;;;;;13.02;6.97;;;;;;;19.80;45.87;100332.56;5032113;28;20061;-74
2021/09/30 13:25:22;;;;;;;15.20;6.53;;;;;;;19.81;45.35;100339.06;5030074;28;20017;-73
2021/09/30 13:27:50;;;;;;;29.75;6.70;;;;;;;19.73;45.05;100330.41;5032538;28;20029;-73
2021/09/30 13:30:22;;;;;;;13.18;5.95;;;;;;;19.70;45.54;100331.19;5030055;28;20191;-73
2021/09/30 13:32:49;;;;;;;15.63;6.25;;;;;;;19.71;44.86;100331.97;5020278;28;20045;-73
2021/09/30 13:35:16;;;;;;;12.77;6.38;;;;;;;19.76;44.97;100334.53;5020173;28;20018;-74
2021/09/30 13:37:42;;;;;;;8.45;6.20;;;;;;;19.70;44.83;100331.19;5022578;28;20416;-73
2021/09/30 13:40:09;;;;;;;12.23;6.47;;;;;;;19.65;43.78;100325.78;5023596;28;20036;-72
2021/09/30 13:42:37;;;;;;;12.65;5.80;;;;;;;19.64;44.79;100327.00;5023617;28;20033;-74
2021/09/30 13:45:07;;;;;;;11.57;6.25;;;;;;;19.61;45.78;100317.25;5027676;28;20083;-73
2021/09/30 13:47:32;;;;;;;9.90;6.32;;;;;;;19.67;44.93;100326.25;5024222;28;20025;-74
2021/09/30 13:49:58;;;;;;;15.90;6.65;;;;;;;19.68;44.09;100325.06;5023551;28;20415;-74
2021/09/30 13:52:26;;;;;;;13.65;6.82;;;;;;;19.70;44.33;100322.66;5024874;28;20404;-74
2021/09/30 13:54:51;;;;;;;11.73;5.80;;;;;;;19.66;44.99;100321.75;5028896;28;20477;-72
2021/09/30 13:57:17;;;;;;;13.32;6.20;;;;;;;19.49;45.07;100323.09;5030090;28;20053;-73
2021/09/30 13:59:43;;;;;;;14.27;7.38;;;;;;;19.53;44.48;100325.97;5030332;28;20100;-73
2021/09/30 14:02:09;;;;;;;16.48;6.30;;;;;;;19.37;45.00;100324.06;5032014;28;20028;-73
2021/09/30 14:04:35;;;;;;;14.63;6.13;;;;;;;19.29;44.44;100333.59;5027190;28;20029;-72
2021/09/30 14:07:10;;;;;;;12.57;6.50;;;;;;;19.26;44.71;100323.84;5027099;28;20035;-73
2021/09/30 14:09:36;;;;;;;12.55;6.38;;;;;;;19.19;45.22;100326.53;5028164;28;20049;-73
2021/09/30 14:12:04;;;;;;;15.43;6.53;;;;;;;19.25;44.97;100321.38;5029910;28;20076;-73